createdAt,value
2023-05-22T00:03:59.944Z,22
2023-05-22T00:10:06.087Z,22
2023-05-22T00:16:11.485Z,22
2023-05-22T00:22:17.248Z,22
2023-05-22T00:28:23.210Z,21.9
2023-05-22T00:34:28.989Z,21.9
2023-05-22T00:40:34.566Z,21.9
2023-05-22T00:46:40.148Z,21.9
2023-05-22T00:52:45.163Z,21.8
2023-05-22T00:58:50.862Z,21.8
2023-05-22T01:04:56.084Z,21.8
2023-05-22T01:11:01.254Z,21.8
2023-05-22T01:17:07.184Z,21.7
2023-05-22T01:23:13.015Z,21.7
2023-05-22T01:29:18.739Z,21.7
2023-05-22T01:35:24.349Z,21.6
2023-05-22T01:41:29.937Z,21.6
2023-05-22T01:47:35.864Z,21.6
2023-05-22T01:53:41.085Z,21.6
2023-05-22T01:59:47.016Z,21.5
2023-05-22T02:05:52.595Z,21.5
2023-05-22T02:11:57.400Z,21.5
2023-05-22T02:18:03.144Z,21.4
2023-05-22T02:24:08.704Z,21.4
2023-05-22T02:30:13.735Z,21.4
2023-05-22T02:36:19.618Z,21.4
2023-05-22T02:42:25.190Z,21.4
2023-05-22T02:48:30.969Z,21.3
2023-05-22T02:54:36.764Z,21.3
2023-05-22T03:00:42.332Z,21.3
2023-05-22T03:06:47.705Z,21.3
2023-05-22T03:12:53.110Z,21.3
2023-05-22T03:18:58.855Z,21.2
2023-05-22T03:25:04.289Z,21.2
2023-05-22T03:31:09.367Z,21.2
2023-05-22T03:37:15.354Z,21.2
2023-05-22T03:43:20.190Z,21.2
2023-05-22T03:49:26.095Z,21.1
2023-05-22T03:55:31.881Z,21.1
2023-05-22T04:01:37.290Z,21.1
2023-05-22T04:07:43.215Z,21.1
2023-05-22T04:13:48.867Z,21.1
2023-05-22T04:19:54.208Z,21.1
2023-05-22T04:25:59.794Z,21.1
2023-05-22T04:32:04.753Z,21.1
2023-05-22T04:38:09.871Z,21.1
2023-05-22T04:44:15.645Z,21
2023-05-22T04:50:20.864Z,21
2023-05-22T04:56:35.174Z,21
2023-05-22T05:02:41.448Z,21.1
2023-05-22T05:08:46.926Z,21.1
2023-05-22T05:14:52.300Z,21.1
2023-05-22T05:20:58.096Z,21
2023-05-22T05:27:03.520Z,21
2023-05-22T05:33:09.050Z,21
2023-05-22T05:39:14.227Z,21
2023-05-22T05:45:19.351Z,21
2023-05-22T05:51:25.138Z,21
2023-05-22T05:57:31.537Z,21.1
2023-05-22T06:03:37.431Z,21.4
2023-05-22T06:09:42.923Z,21.1
2023-05-22T06:15:48.743Z,21.4
2023-05-22T06:21:54.271Z,21.5
2023-05-22T06:27:59.799Z,21.1
2023-05-22T06:34:05.631Z,21.1
2023-05-22T06:40:11.153Z,22.1
2023-05-22T06:46:16.955Z,22.2
2023-05-22T06:52:22.770Z,29.2
2023-05-22T06:58:27.891Z,30
2023-05-22T07:04:33.083Z,29.1
2023-05-22T07:10:39.061Z,23.6
2023-05-22T07:16:45.444Z,22.9
2023-05-22T07:22:51.431Z,22.7
2023-05-22T07:28:57.027Z,22.6
2023-05-22T07:35:02.962Z,22.5
2023-05-22T07:41:08.317Z,22.5
2023-05-22T07:47:14.359Z,22.5
2023-05-22T07:53:20.482Z,22.4
2023-05-22T07:59:26.048Z,22.4
2023-05-22T08:05:32.265Z,22.3
2023-05-22T08:11:39.639Z,22.4
2023-05-22T08:17:46.287Z,22.4
2023-05-22T08:23:52.248Z,22.5
2023-05-22T08:29:58.068Z,22.5
2023-05-22T08:36:03.373Z,22.5
2023-05-22T08:42:09.771Z,22.5
2023-05-22T08:48:15.950Z,22.6
2023-05-22T08:54:21.384Z,22.6
2023-05-22T09:00:26.967Z,22.6
2023-05-22T09:06:32.909Z,22.6
2023-05-22T09:12:38.723Z,22.7
2023-05-22T09:18:44.883Z,22.6
2023-05-22T09:24:50.843Z,22.6
2023-05-22T09:30:57.067Z,22.7
2023-05-22T09:37:06.694Z,22.7
2023-05-22T09:43:12.682Z,22.7
2023-05-22T09:49:18.852Z,22.7
2023-05-22T09:55:25.047Z,22.8
2023-05-22T10:01:30.337Z,22.8
2023-05-22T10:07:36.194Z,22.8
2023-05-22T10:13:42.174Z,22.8
2023-05-22T10:19:47.717Z,22.9
2023-05-22T10:25:53.743Z,22.8
2023-05-22T10:31:59.350Z,22.9
2023-05-22T10:38:04.892Z,22.9
2023-05-22T10:44:10.863Z,23
2023-05-22T10:50:16.343Z,23
2023-05-22T10:56:24.569Z,23
2023-05-22T11:02:31.519Z,23.1
2023-05-22T11:08:37.096Z,23.1
2023-05-22T11:14:42.908Z,23.2
2023-05-22T11:20:48.679Z,23.2
2023-05-22T11:26:54.609Z,23.3
2023-05-22T11:33:00.652Z,23.3
2023-05-22T11:39:06.815Z,23.3
2023-05-22T11:45:12.177Z,23.4
2023-05-22T11:51:17.914Z,23.4
2023-05-22T11:57:23.348Z,23.2
2023-05-22T12:03:29.139Z,23.3
2023-05-22T12:09:35.637Z,23.4
2023-05-22T12:15:41.405Z,23.5
2023-05-22T12:21:47.251Z,23.5
2023-05-22T12:27:52.766Z,23.5
2023-05-22T12:33:58.329Z,23.6
2023-05-22T12:40:04.129Z,23.5
2023-05-22T12:46:09.176Z,23.6
2023-05-22T12:52:15.051Z,23.6
2023-05-22T12:58:20.672Z,23.7
2023-05-22T13:04:25.938Z,23.7
2023-05-22T13:10:31.974Z,23.7
2023-05-22T13:16:38.026Z,23.8
2023-05-22T13:22:43.949Z,23.8
2023-05-22T13:28:49.190Z,23.8
2023-05-22T13:34:54.880Z,23.9
2023-05-22T13:41:00.301Z,23.9
2023-05-22T13:47:05.520Z,24
2023-05-22T13:53:11.659Z,24
2023-05-22T13:59:17.413Z,24
2023-05-22T14:05:23.167Z,24.1
2023-05-22T14:11:28.740Z,24.1
2023-05-22T14:17:34.325Z,24.2
2023-05-22T14:23:39.737Z,24.2
2023-05-22T14:29:45.875Z,24.3
2023-05-22T14:35:50.868Z,24.2
2023-05-22T14:41:55.856Z,24.3
2023-05-22T14:48:01.776Z,24.3
2023-05-22T14:54:07.027Z,24.4
2023-05-22T15:00:12.946Z,24.4
2023-05-22T15:06:18.777Z,24.4
2023-05-22T15:12:24.146Z,24.4
2023-05-22T15:18:29.636Z,24.5
2023-05-22T15:24:36.866Z,24.4
2023-05-22T15:30:41.863Z,24.5
2023-05-22T15:36:47.421Z,24.5
2023-05-22T15:42:53.769Z,24.5
2023-05-22T15:48:58.784Z,24.6
2023-05-22T15:55:04.519Z,24.6
2023-05-22T16:01:09.947Z,24.6
2023-05-22T16:07:15.883Z,24.6
2023-05-22T16:13:21.652Z,24.6
2023-05-22T16:19:30.620Z,24.6
2023-05-22T16:25:36.520Z,24.6
2023-05-22T16:31:42.303Z,24.6
2023-05-22T16:37:48.856Z,24.6
2023-05-22T16:43:54.632Z,24.5
2023-05-22T16:50:00.061Z,24.6
2023-05-22T16:56:06.177Z,24.6
2023-05-22T17:02:11.962Z,24.6
2023-05-22T17:08:17.953Z,24.6
2023-05-22T17:14:23.153Z,24.6
2023-05-22T17:20:29.080Z,24.6
2023-05-22T17:26:34.704Z,24.6
2023-05-22T17:32:40.890Z,24.6
2023-05-22T17:38:46.414Z,24.6
2023-05-22T17:44:52.256Z,24.6
2023-05-22T17:50:57.612Z,24.6
2023-05-22T17:57:03.375Z,24.6
2023-05-22T18:03:08.770Z,24.6
2023-05-22T18:09:14.705Z,24.6
2023-05-22T18:15:20.675Z,24.5
2023-05-22T18:21:26.460Z,24.5
2023-05-22T18:27:31.887Z,24.5
2023-05-22T18:33:37.441Z,24.5
2023-05-22T18:39:43.171Z,24.4
2023-05-22T18:45:48.799Z,24.4
2023-05-22T18:51:54.727Z,24.4
2023-05-22T18:57:59.958Z,24.4
2023-05-22T19:04:06.121Z,24.4
2023-05-22T19:10:11.512Z,24.4
2023-05-22T19:16:17.238Z,24.3
2023-05-22T19:22:22.995Z,24.3
2023-05-22T19:28:28.580Z,24.3
2023-05-22T19:34:34.566Z,24.3
2023-05-22T19:40:40.118Z,24.3
2023-05-22T19:46:46.603Z,24.3
2023-05-22T19:52:52.723Z,24.3
2023-05-22T19:58:58.553Z,24.2
2023-05-22T20:05:04.069Z,24.2
2023-05-22T20:11:09.912Z,24.2
2023-05-22T20:17:15.263Z,24.2
2023-05-22T20:23:20.993Z,24.1
2023-05-22T20:29:26.155Z,24.1
2023-05-22T20:35:31.580Z,24.1
2023-05-22T20:41:36.725Z,24.1
2023-05-22T20:47:42.067Z,24.1
2023-05-22T20:53:48.273Z,24
2023-05-22T20:59:53.830Z,24
2023-05-22T21:05:59.588Z,24
2023-05-22T21:12:04.194Z,24
2023-05-22T21:18:09.954Z,23.9
2023-05-22T21:24:15.489Z,23.9
2023-05-22T21:30:21.321Z,23.9
2023-05-22T21:36:26.656Z,23.9
2023-05-22T21:42:41.755Z,23.9
2023-05-22T21:48:50.935Z,23.8
2023-05-22T21:54:56.683Z,23.8
2023-05-22T22:01:02.047Z,23.8
2023-05-22T22:07:07.314Z,23.7
2023-05-22T22:13:12.574Z,23.7
2023-05-22T22:19:17.812Z,23.7
2023-05-22T22:25:23.369Z,23.7
2023-05-22T22:31:29.117Z,23.6
2023-05-22T22:37:34.699Z,23.6
2023-05-22T22:43:40.633Z,23.6
2023-05-22T22:49:46.025Z,23.6
2023-05-22T22:55:51.442Z,23.6
2023-05-22T23:01:57.636Z,23.5
2023-05-22T23:08:03.611Z,23.5
2023-05-22T23:14:08.967Z,23.5
2023-05-22T23:20:15.115Z,23.5
2023-05-22T23:26:20.341Z,23.4
2023-05-22T23:32:25.658Z,23.4
2023-05-22T23:38:31.627Z,23.4
2023-05-22T23:44:37.266Z,23.4
2023-05-22T23:50:42.987Z,23.3
2023-05-22T23:56:48.130Z,23.3
